createdAt,value
2022-08-28T00:02:26.859Z,98086.63
2022-08-28T00:07:28.779Z,98080.78
2022-08-28T00:12:31.720Z,98078.38
2022-08-28T00:17:33.525Z,98078.97
2022-08-28T00:22:35.696Z,98076.31
2022-08-28T00:27:53.466Z,98076.78
2022-08-28T00:33:00.776Z,98092.81
2022-08-28T00:38:02.708Z,98089.38
2022-08-28T00:43:06.234Z,98089.38
2022-08-28T00:48:08.329Z,98089.81
2022-08-28T00:53:10.183Z,98085.81
2022-08-28T00:58:12.560Z,98082.81
2022-08-28T01:03:14.725Z,98077.44
2022-08-28T01:08:16.950Z,98086.81
2022-08-28T01:13:21.179Z,98095.38
2022-08-28T01:18:24.033Z,98087.72
2022-08-28T01:23:51.774Z,98084.50
2022-08-28T01:28:54.357Z,98094.00
2022-08-28T01:33:56.473Z,98100.28
2022-08-28T01:39:04.942Z,98100.28
2022-08-28T01:44:07.085Z,98101.19
2022-08-28T01:49:12.114Z,98105.28
2022-08-28T01:54:14.729Z,98107.34
2022-08-28T01:59:16.927Z,98114.66
2022-08-28T02:04:18.719Z,98113.47
2022-08-28T02:09:21.453Z,98120.22
2022-08-28T02:14:23.211Z,98121.22
2022-08-28T02:19:25.030Z,98132.78
2022-08-28T02:24:26.883Z,98135.84
2022-08-28T02:29:29.092Z,98127.97
2022-08-28T02:34:30.898Z,98137.47
2022-08-28T02:39:32.707Z,98134.84
2022-08-28T02:44:35.083Z,98126.94
2022-08-28T02:49:36.911Z,98127.97
2022-08-28T02:54:41.509Z,98118.47
2022-08-28T02:59:44.203Z,98123.72
2022-08-28T03:04:46.039Z,98123.72
2022-08-28T03:09:47.980Z,98131.84
2022-08-28T03:14:51.955Z,98125.78
2022-08-28T03:19:54.108Z,98125.19
2022-08-28T03:24:55.942Z,98129.44
2022-08-28T03:29:57.774Z,98123.59
2022-08-28T03:35:00.163Z,98123.00
2022-08-28T03:40:02.224Z,98119.78
2022-08-28T03:45:05.731Z,98124.25
2022-08-28T03:50:11.394Z,98123.88
2022-08-28T03:55:13.782Z,98127.53
2022-08-28T04:00:16.451Z,98126.97
2022-08-28T04:05:18.427Z,98138.06
2022-08-28T04:10:20.213Z,98146.41
2022-08-28T04:15:22.624Z,98154.50
2022-08-28T04:20:24.487Z,98157.22
2022-08-28T04:25:26.260Z,98162.91
2022-08-28T04:30:28.069Z,98163.50
2022-08-28T04:35:29.959Z,98157.66
2022-08-28T04:40:31.785Z,98165.75
2022-08-28T04:45:34.269Z,98162.19
2022-08-28T04:50:41.346Z,98160.22
2022-08-28T04:55:55.013Z,98175.63
2022-08-28T05:00:57.350Z,98185.56
2022-08-28T05:05:59.246Z,98176.06
2022-08-28T05:11:33.673Z,98178.91
2022-08-28T05:16:43.547Z,98186.19
2022-08-28T05:21:45.936Z,98191.09
2022-08-28T05:26:48.478Z,98188.09
2022-08-28T05:31:50.662Z,98190.13
2022-08-28T05:36:53.019Z,98197.88
2022-08-28T05:41:54.845Z,98209.03
2022-08-28T05:46:56.843Z,98220.78
2022-08-28T05:51:58.613Z,98231.94
2022-08-28T05:57:00.504Z,98235.34
2022-08-28T06:02:05.898Z,98236.38
2022-08-28T06:07:08.383Z,98243.03
2022-08-28T06:12:10.463Z,98257.63
2022-08-28T06:17:14.276Z,98255.00
2022-08-28T06:22:16.062Z,98264.47
2022-08-28T06:27:17.916Z,98265.88
2022-08-28T06:32:20.099Z,98258.59
2022-08-28T06:37:22.035Z,98261.84
2022-08-28T06:42:24.280Z,98262.06
2022-08-28T06:47:26.875Z,98255.97
2022-08-28T06:52:29.013Z,98262.47
2022-08-28T06:57:31.778Z,98273.38
2022-08-28T07:02:34.610Z,98277.56
2022-08-28T07:07:36.544Z,98272.31
2022-08-28T07:12:38.638Z,98283.47
2022-08-28T07:17:40.502Z,98288.75
2022-08-28T07:22:42.484Z,98294.81
2022-08-28T07:27:44.753Z,98286.31
2022-08-28T07:32:49.797Z,98293.63
2022-08-28T07:37:51.804Z,98296.41
2022-08-28T07:43:12.449Z,98296.59
2022-08-28T07:48:14.765Z,98298.66
2022-08-28T07:53:16.870Z,98301.28
2022-08-28T07:58:20.220Z,98305.31
2022-08-28T08:03:23.210Z,98313.41
2022-08-28T08:08:25.644Z,98318.25
2022-08-28T08:13:27.670Z,98317.81
2022-08-28T08:18:29.767Z,98314.44
2022-08-28T08:23:31.671Z,98322.88
2022-08-28T08:28:36.221Z,98322.44
2022-08-28T08:33:41.211Z,98320.81
2022-08-28T08:38:44.143Z,98327.69
2022-08-28T08:44:07.885Z,98321.38
2022-08-28T08:49:18.887Z,98319.91
2022-08-28T08:54:24.773Z,98334.66
2022-08-28T08:59:29.869Z,98325.69
2022-08-28T09:04:47.427Z,98335.63
2022-08-28T09:09:57.237Z,98339.28
2022-08-28T09:15:14.228Z,98345.13
2022-08-28T09:20:21.525Z,98344.13
2022-08-28T09:25:55.102Z,98349.69
2022-08-28T09:31:05.655Z,98341.38
2022-08-28T09:36:31.719Z,98341.53
2022-08-28T09:42:05.233Z,98346.41
2022-08-28T09:47:07.181Z,98350.06
2022-08-28T09:52:25.180Z,98354.31
2022-08-28T09:57:27.373Z,98356.00
2022-08-28T10:02:43.404Z,98350.66
2022-08-28T10:07:55.980Z,98361.94
2022-08-28T10:13:06.375Z,98351.09
2022-08-28T10:18:54.777Z,98351.00
2022-08-28T10:24:08.894Z,98357.50
2022-08-28T10:29:20.094Z,98350.84
2022-08-28T10:34:34.117Z,98362.94
2022-08-28T10:39:46.514Z,98352.97
2022-08-28T10:45:14.311Z,98358.31
2022-08-28T10:50:23.976Z,98361.47
2022-08-28T10:55:34.692Z,98361.31
2022-08-28T11:00:43.818Z,98355.44
2022-08-28T11:06:02.166Z,98350.25
2022-08-28T11:11:07.598Z,98347.41
2022-08-28T11:16:24.153Z,98356.91
2022-08-28T11:21:40.649Z,98356.81
2022-08-28T11:27:02.945Z,98356.41
2022-08-28T11:32:28.871Z,98357.66
2022-08-28T11:37:49.202Z,98365.25
2022-08-28T11:42:51.266Z,98370.78
2022-08-28T11:47:56.893Z,98375.34
2022-08-28T11:53:27.234Z,98376.38
2022-08-28T11:58:39.243Z,98373.28
2022-08-28T12:03:44.963Z,98384.09
2022-08-28T12:08:58.844Z,98373.09
2022-08-28T12:14:00.789Z,98374.59
2022-08-28T12:19:04.621Z,98376.31
2022-08-28T12:24:24.323Z,98373.59
2022-08-28T12:29:45.724Z,98378.88
2022-08-28T12:35:16.978Z,98368.28
2022-08-28T12:40:25.486Z,98373.53
2022-08-28T12:45:46.352Z,98368.16
2022-08-28T12:50:56.390Z,98377.66
2022-08-28T12:56:00.558Z,98364.84
2022-08-28T13:01:25.557Z,98373.38
2022-08-28T13:06:31.001Z,98375.78
2022-08-28T13:11:39.481Z,98369.59
2022-08-28T13:16:45.754Z,98360.31
2022-08-28T13:21:47.557Z,98372.22
2022-08-28T13:27:07.416Z,98366.91
2022-08-28T13:32:16.234Z,98362.66
2022-08-28T13:37:57.559Z,98361.63
2022-08-28T13:43:07.178Z,98359.50
2022-08-28T13:48:11.516Z,98358.91
2022-08-28T13:53:15.190Z,98346.88
2022-08-28T13:58:17.865Z,98358.00
2022-08-28T14:03:35.661Z,98363.38
2022-08-28T14:08:39.978Z,98362.69
2022-08-28T14:13:47.324Z,98354.75
2022-08-28T14:18:59.639Z,98345.91
2022-08-28T14:24:02.097Z,98346.59
2022-08-28T14:29:06.893Z,98346.25
2022-08-28T14:34:10.591Z,98354.84
2022-08-28T14:39:13.644Z,98349.22
2022-08-28T14:44:16.107Z,98353.59
2022-08-28T14:49:19.790Z,98360.25
2022-08-28T14:54:23.719Z,98347.16
2022-08-28T14:59:29.452Z,98352.91
2022-08-28T15:04:35.464Z,98363.50
2022-08-28T15:09:40.555Z,98359.91
2022-08-28T15:14:51.903Z,98356.00
2022-08-28T15:20:00.590Z,98357.97
2022-08-28T15:25:03.658Z,98347.50
2022-08-28T15:30:06.445Z,98354.25
2022-08-28T15:35:09.096Z,98346.41
2022-08-28T15:40:30.308Z,98351.78
2022-08-28T15:45:35.747Z,98358.34
2022-08-28T15:50:38.802Z,98348.25
2022-08-28T15:55:42.268Z,98345.72
2022-08-28T16:00:44.772Z,98348.34
2022-08-28T16:05:46.934Z,98359.41
2022-08-28T16:10:52.884Z,98359.28
2022-08-28T16:15:57.605Z,98363.44
2022-08-28T16:21:04.072Z,98364.03
2022-08-28T16:26:08.695Z,98357.63
2022-08-28T16:31:20.422Z,98368.06
2022-08-28T16:36:23.881Z,98361.88
2022-08-28T16:41:27.647Z,98364.63
2022-08-28T16:46:30.944Z,98361.66
2022-08-28T16:51:32.900Z,98372.34
2022-08-28T16:56:34.874Z,98360.06
2022-08-28T17:01:37.866Z,98362.13
2022-08-28T17:06:44.574Z,98360.88
2022-08-28T17:11:46.518Z,98355.72
2022-08-28T17:16:54.519Z,98363.97
2022-08-28T17:22:15.430Z,98365.69
2022-08-28T17:27:22.386Z,98360.53
2022-08-28T17:32:25.430Z,98370.41
2022-08-28T17:37:27.774Z,98366.78
2022-08-28T17:42:30.044Z,98376.44
2022-08-28T17:47:32.064Z,98378.13
2022-08-28T17:52:34.512Z,98383.97
2022-08-28T17:57:43.476Z,98384.28
2022-08-28T18:02:45.673Z,98396.78
2022-08-28T18:07:47.903Z,98404.59
2022-08-28T18:12:50.541Z,98399.84
2022-08-28T18:17:52.559Z,98410.72
2022-08-28T18:22:54.925Z,98410.22
2022-08-28T18:27:57.579Z,98418.22
2022-08-28T18:32:59.914Z,98428.81
2022-08-28T18:38:05.925Z,98433.34
2022-08-28T18:43:07.821Z,98442.13
2022-08-28T18:48:09.590Z,98447.25
2022-08-28T18:53:11.501Z,98455.00
2022-08-28T18:58:15.252Z,98452.44
2022-08-28T19:03:17.603Z,98456.75
2022-08-28T19:08:19.571Z,98455.78
2022-08-28T19:13:21.648Z,98460.69
2022-08-28T19:18:24.258Z,98459.72
2022-08-28T19:23:26.145Z,98463.00
2022-08-28T19:28:28.348Z,98468.94
2022-08-28T19:33:30.420Z,98469.59
2022-08-28T19:38:33.924Z,98472.06
2022-08-28T19:43:42.957Z,98473.50
2022-08-28T19:48:45.964Z,98481.03
2022-08-28T19:53:56.783Z,98475.38
2022-08-28T19:59:01.854Z,98475.00
2022-08-28T20:04:06.131Z,98483.53
2022-08-28T20:09:12.572Z,98486.56
2022-08-28T20:14:16.982Z,98480.13
2022-08-28T20:19:19.646Z,98492.91
2022-08-28T20:24:25.133Z,98487.25
2022-08-28T20:29:27.125Z,98495.59
2022-08-28T20:34:29.142Z,98497.84
2022-08-28T20:39:31.025Z,98507.97
2022-08-28T20:44:32.843Z,98508.59
2022-08-28T20:49:39.353Z,98509.03
2022-08-28T20:54:44.698Z,98508.06
2022-08-28T20:59:48.190Z,98513.72
2022-08-28T21:04:52.126Z,98510.94
2022-08-28T21:10:05.181Z,98516.59
2022-08-28T21:15:13.005Z,98517.84
2022-08-28T21:20:16.196Z,98510.97
2022-08-28T21:25:24.690Z,98514.81
2022-08-28T21:30:29.575Z,98520.09
2022-08-28T21:35:31.916Z,98529.59
2022-08-28T21:40:35.768Z,98533.69
2022-08-28T21:45:37.799Z,98529.03
2022-08-28T21:50:43.138Z,98529.47
2022-08-28T21:55:53.197Z,98531.50
2022-08-28T22:00:59.080Z,98536.16
2022-08-28T22:06:00.906Z,98525.25
2022-08-28T22:11:02.707Z,98534.94
2022-08-28T22:16:07.436Z,98537.78
2022-08-28T22:21:36.821Z,98543.03
2022-08-28T22:26:39.228Z,98545.06
2022-08-28T22:31:45.792Z,98547.91
2022-08-28T22:36:50.477Z,98548.13
2022-08-28T22:41:52.397Z,98546.69
2022-08-28T22:46:54.434Z,98548.91
2022-08-28T22:51:56.280Z,98553.78
2022-08-28T22:56:58.574Z,98544.47
2022-08-28T23:02:01.120Z,98554.59
2022-08-28T23:07:02.949Z,98556.00
2022-08-28T23:12:07.571Z,98547.94
2022-08-28T23:17:09.731Z,98556.22
2022-08-28T23:22:11.897Z,98552.41
2022-08-28T23:27:34.705Z,98554.41
2022-08-28T23:32:36.134Z,98552.19
2022-08-28T23:37:39.829Z,98557.66
2022-08-28T23:42:42.581Z,98563.13
2022-08-28T23:47:45.152Z,98575.66
2022-08-28T23:52:48.390Z,98571.81
2022-08-28T23:57:52.239Z,98569.38
